Lavallette, New Jersey
Current Conditions -  °F | °C
As of 4:35 AM on Monday 24 Nov 2014 (Local Time) from KMJX Reporting Station
Overcast Overcast  
Wind Chill: 61°   Ceiling: 700
Heat Index: 61°   Visibility: 10mi
Dew Point: 61°   Wind: 25mph
Humidity: 100%   Direction: 180°S
Pressure: 29.74"   Gusts: 37mph
Location:  39.97°N, 74.07°W
Report Text: KMJX 240935Z AUTO 18022G32KT 10SM OVC007 16/16 A2974 RMK AO1
Loading
Personal Weather Stations






























Interactive Weather Map New forecast layout! Learn more

10-Day Weather Forecast

Advertisements
Track Severe Weather on mobile